createdAt,value
2019-03-16T00:00:34.833Z,1.40
2019-03-16T00:03:05.735Z,1.40
2019-03-16T00:05:37.246Z,1.37
2019-03-16T00:08:08.493Z,1.50
2019-03-16T00:10:39.780Z,1.40
2019-03-16T00:13:10.886Z,1.60
2019-03-16T00:15:41.684Z,1.83
2019-03-16T00:18:12.781Z,1.97
2019-03-16T00:20:43.643Z,1.60
2019-03-16T00:23:14.530Z,1.80
2019-03-16T00:25:45.988Z,2.10
2019-03-16T00:28:17.035Z,1.90
2019-03-16T00:30:47.829Z,2.00
2019-03-16T00:33:18.646Z,1.60
2019-03-16T00:35:49.438Z,1.80
2019-03-16T00:38:23.357Z,1.70
2019-03-16T00:40:53.189Z,2.00
2019-03-16T00:43:24.112Z,2.10
2019-03-16T00:45:54.908Z,2.10
2019-03-16T00:48:25.719Z,1.63
2019-03-16T00:50:56.941Z,1.90
2019-03-16T00:53:27.753Z,1.90
2019-03-16T00:55:58.872Z,2.20
2019-03-16T00:58:29.688Z,1.70
2019-03-16T01:01:00.805Z,1.80
2019-03-16T01:03:31.699Z,1.80
2019-03-16T01:06:02.865Z,1.90
2019-03-16T01:08:33.762Z,1.80
2019-03-16T01:11:04.930Z,1.90
2019-03-16T01:13:35.999Z,2.07
2019-03-16T01:16:07.298Z,1.60
2019-03-16T01:18:38.172Z,1.80
2019-03-16T01:21:09.039Z,1.63
2019-03-16T01:23:40.165Z,1.60
2019-03-16T01:26:11.168Z,2.00
2019-03-16T01:28:42.448Z,1.70
2019-03-16T01:31:13.271Z,2.00
2019-03-16T01:33:44.543Z,1.80
2019-03-16T01:36:15.605Z,1.80
2019-03-16T01:38:46.376Z,1.70
2019-03-16T01:41:17.423Z,1.90
2019-03-16T01:43:48.431Z,1.80
2019-03-16T01:46:19.511Z,1.90
2019-03-16T01:48:50.327Z,2.03
2019-03-16T01:51:21.392Z,2.00
2019-03-16T01:53:52.407Z,1.77
2019-03-16T01:56:23.920Z,1.80
2019-03-16T01:58:55.050Z,1.73
2019-03-16T02:01:25.814Z,2.10
2019-03-16T02:03:56.804Z,1.90
2019-03-16T02:06:27.604Z,1.70
2019-03-16T02:08:58.367Z,1.77
2019-03-16T02:11:29.426Z,2.07
2019-03-16T02:14:00.471Z,1.80
2019-03-16T02:16:31.286Z,1.77
2019-03-16T02:19:02.144Z,1.90
2019-03-16T02:21:33.172Z,1.90
2019-03-16T02:24:03.975Z,1.90
2019-03-16T02:26:34.722Z,2.30
2019-03-16T02:29:06.626Z,2.10
2019-03-16T02:31:37.873Z,2.10
2019-03-16T02:34:08.718Z,2.00
2019-03-16T02:36:49.795Z,2.00
2019-03-16T02:39:20.568Z,2.27
2019-03-16T02:41:51.794Z,3.10
2019-03-16T02:44:22.572Z,2.50
2019-03-16T02:46:53.641Z,2.50
2019-03-16T02:49:24.408Z,2.70
2019-03-16T02:51:55.245Z,2.90
2019-03-16T02:54:26.007Z,3.00
2019-03-16T02:56:57.024Z,3.07
2019-03-16T02:59:28.014Z,3.23
2019-03-16T03:01:59.027Z,3.50
2019-03-16T03:04:30.113Z,3.77
2019-03-16T03:07:01.117Z,3.23
2019-03-16T03:09:32.366Z,2.57
2019-03-16T03:12:03.673Z,2.97
2019-03-16T03:14:35.292Z,2.90
2019-03-16T03:17:06.360Z,2.97
2019-03-16T03:19:37.495Z,2.80
2019-03-16T03:22:08.498Z,3.00
2019-03-16T03:24:44.002Z,2.80
2019-03-16T03:27:12.594Z,2.60
2019-03-16T03:29:44.103Z,2.47
2019-03-16T03:32:15.118Z,2.37
2019-03-16T03:34:46.366Z,2.37
2019-03-16T03:37:17.117Z,2.20
2019-03-16T03:39:48.199Z,2.10
2019-03-16T03:42:19.368Z,2.27
2019-03-16T03:44:50.432Z,1.80
2019-03-16T03:47:21.951Z,1.90
2019-03-16T03:49:52.960Z,1.90
2019-03-16T03:52:24.209Z,1.83
2019-03-16T03:54:55.789Z,1.80
2019-03-16T03:57:26.851Z,1.60
2019-03-16T03:59:58.003Z,1.53
2019-03-16T04:02:28.824Z,1.60
2019-03-16T04:04:59.715Z,1.70
2019-03-16T04:07:31.011Z,2.27
2019-03-16T04:10:02.909Z,2.20
2019-03-16T04:12:33.620Z,2.57
2019-03-16T04:15:04.527Z,2.70
2019-03-16T04:17:35.265Z,2.70
2019-03-16T04:20:07.620Z,2.53
2019-03-16T04:22:39.051Z,2.30
2019-03-16T04:25:09.817Z,2.40
2019-03-16T04:27:41.045Z,2.50
2019-03-16T04:30:12.944Z,2.37
2019-03-16T04:32:44.231Z,2.20
2019-03-16T04:35:15.067Z,2.10
2019-03-16T04:37:46.053Z,2.20
2019-03-16T04:40:16.824Z,1.90
2019-03-16T04:42:47.811Z,2.00
2019-03-16T04:45:18.575Z,2.03
2019-03-16T04:47:49.549Z,1.77
2019-03-16T04:50:20.322Z,2.00
2019-03-16T04:52:51.338Z,2.07
2019-03-16T04:55:22.360Z,1.80
2019-03-16T04:57:53.103Z,2.20
2019-03-16T05:00:23.873Z,2.10
2019-03-16T05:02:54.860Z,2.10
2019-03-16T05:05:26.012Z,2.17
2019-03-16T05:07:56.987Z,2.20
2019-03-16T05:10:27.772Z,2.17
2019-03-16T05:12:58.526Z,1.80
2019-03-16T05:15:29.788Z,1.70
2019-03-16T05:18:00.707Z,1.80
2019-03-16T05:20:31.506Z,1.80
2019-03-16T05:23:02.541Z,1.80
2019-03-16T05:25:33.306Z,2.30
2019-03-16T05:28:04.087Z,2.77
2019-03-16T05:30:34.943Z,3.70
2019-03-16T05:33:05.902Z,5.10
2019-03-16T05:35:36.962Z,6.67
2019-03-16T05:38:07.763Z,6.80
2019-03-16T05:40:38.627Z,7.43
2019-03-16T05:43:09.379Z,7.23
2019-03-16T05:45:40.435Z,7.97
2019-03-16T05:48:11.696Z,7.47
2019-03-16T05:50:42.467Z,8.93
2019-03-16T05:53:13.230Z,8.93
2019-03-16T05:55:44.235Z,9.43
2019-03-16T05:58:15.248Z,8.10
2019-03-16T06:00:46.268Z,9.87
2019-03-16T06:03:17.282Z,9.40
2019-03-16T06:05:48.129Z,8.13
2019-03-16T06:08:18.963Z,5.37
2019-03-16T06:10:49.743Z,4.10
2019-03-16T06:13:20.503Z,3.33
2019-03-16T06:15:51.513Z,3.30
2019-03-16T06:18:22.366Z,3.07
2019-03-16T06:20:53.132Z,3.57
2019-03-16T06:23:23.892Z,3.53
2019-03-16T06:25:55.631Z,3.40
2019-03-16T06:28:26.379Z,3.70
2019-03-16T06:30:57.144Z,5.20
2019-03-16T06:33:27.971Z,3.77
2019-03-16T06:35:59.228Z,3.73
2019-03-16T06:38:29.982Z,3.83
2019-03-16T06:41:01.024Z,3.33
2019-03-16T06:43:32.072Z,3.30
2019-03-16T06:46:03.069Z,3.00
2019-03-16T06:48:34.046Z,3.57
2019-03-16T06:51:04.924Z,3.10
2019-03-16T06:53:35.902Z,4.30
2019-03-16T06:56:06.916Z,3.30
2019-03-16T06:58:37.904Z,3.70
2019-03-16T07:01:08.687Z,4.07
2019-03-16T07:03:39.687Z,4.10
2019-03-16T07:06:10.670Z,3.17
2019-03-16T07:08:41.417Z,3.63
2019-03-16T07:11:12.643Z,3.20
2019-03-16T07:13:43.424Z,2.63
2019-03-16T07:16:14.177Z,3.00
2019-03-16T07:18:58.014Z,2.53
2019-03-16T07:21:18.021Z,2.90
2019-03-16T07:23:49.039Z,3.00
2019-03-16T07:26:20.294Z,3.07
2019-03-16T07:28:51.341Z,2.77
2019-03-16T07:31:22.571Z,2.23
2019-03-16T07:33:53.552Z,2.77
2019-03-16T07:36:24.558Z,2.57
2019-03-16T07:38:55.408Z,2.80
2019-03-16T07:41:26.169Z,2.40
2019-03-16T07:43:57.198Z,2.80
2019-03-16T07:46:28.027Z,2.97
2019-03-16T07:48:59.090Z,2.80
2019-03-16T07:51:30.321Z,2.40
2019-03-16T07:54:01.096Z,3.00
2019-03-16T07:56:32.626Z,3.03
2019-03-16T07:59:03.647Z,3.20
2019-03-16T08:01:34.693Z,3.10
2019-03-16T08:04:05.492Z,2.87
2019-03-16T08:06:37.246Z,2.87
2019-03-16T08:09:08.156Z,3.10
2019-03-16T08:11:39.198Z,3.30
2019-03-16T08:14:10.328Z,3.50
2019-03-16T08:16:41.089Z,2.80
2019-03-16T08:19:11.895Z,2.80
2019-03-16T08:21:42.885Z,2.83
2019-03-16T08:24:13.885Z,2.70
2019-03-16T08:26:44.734Z,3.03
2019-03-16T08:29:15.735Z,3.30
2019-03-16T08:31:47.481Z,3.10
2019-03-16T08:34:18.499Z,3.30
2019-03-16T08:36:49.619Z,3.47
2019-03-16T08:39:20.627Z,3.10
2019-03-16T08:41:51.485Z,2.90
2019-03-16T08:44:22.501Z,2.90
2019-03-16T08:46:53.755Z,2.30
2019-03-16T08:49:24.626Z,2.73
2019-03-16T08:51:55.687Z,2.17
2019-03-16T08:54:26.688Z,2.40
2019-03-16T08:56:58.764Z,2.07
2019-03-16T08:59:29.788Z,2.23
2019-03-16T09:02:00.842Z,2.40
2019-03-16T09:04:31.927Z,2.53
2019-03-16T09:07:02.924Z,2.50
2019-03-16T09:09:34.030Z,2.53
2019-03-16T09:12:05.266Z,2.77
2019-03-16T09:14:36.027Z,2.30
2019-03-16T09:17:09.048Z,2.13
2019-03-16T09:19:39.793Z,2.30
2019-03-16T09:22:10.781Z,2.40
2019-03-16T09:24:42.309Z,2.47
2019-03-16T09:27:13.535Z,2.17
2019-03-16T09:29:44.664Z,2.10
2019-03-16T09:32:15.415Z,2.10
2019-03-16T09:34:46.211Z,1.90
2019-03-16T09:37:16.966Z,2.00
2019-03-16T09:39:47.783Z,2.10
2019-03-16T09:42:19.041Z,2.20
2019-03-16T09:44:49.803Z,2.00
2019-03-16T09:47:20.826Z,1.80
2019-03-16T09:49:51.830Z,1.60
2019-03-16T09:52:23.082Z,1.60
2019-03-16T09:54:54.009Z,1.60
2019-03-16T09:57:25.041Z,1.47
2019-03-16T09:59:56.029Z,1.43
2019-03-16T10:02:27.052Z,1.47
2019-03-16T10:04:58.323Z,1.47
2019-03-16T10:07:29.374Z,1.40
2019-03-16T10:10:00.459Z,1.40
2019-03-16T10:12:31.243Z,1.57
2019-03-16T10:15:02.048Z,1.70
2019-03-16T10:17:32.995Z,1.70
2019-03-16T10:20:03.958Z,1.70
2019-03-16T10:22:35.328Z,2.07
2019-03-16T10:25:06.270Z,2.00
2019-03-16T10:27:37.110Z,2.47
2019-03-16T10:30:09.044Z,2.60
2019-03-16T10:32:40.066Z,2.43
2019-03-16T10:35:11.866Z,2.50
2019-03-16T10:37:42.917Z,2.80
2019-03-16T10:40:13.673Z,2.67
2019-03-16T10:42:45.046Z,2.93
2019-03-16T10:45:16.028Z,2.77
2019-03-16T10:47:47.562Z,2.83
2019-03-16T10:50:18.618Z,3.20
2019-03-16T10:52:50.015Z,3.00
2019-03-16T10:55:21.280Z,2.77
2019-03-16T10:57:52.532Z,3.00
2019-03-16T11:00:23.512Z,3.37
2019-03-16T11:02:54.868Z,3.10
2019-03-16T11:05:26.680Z,2.23
2019-03-16T11:07:57.524Z,2.67
2019-03-16T11:10:28.505Z,2.20
2019-03-16T11:12:59.537Z,2.10
2019-03-16T11:15:30.615Z,2.30
2019-03-16T11:18:01.423Z,1.90
2019-03-16T11:20:32.415Z,2.30
2019-03-16T11:23:03.298Z,2.10
2019-03-16T11:25:34.284Z,1.60
2019-03-16T11:28:05.129Z,1.60
2019-03-16T11:30:36.583Z,1.40
2019-03-16T11:33:07.657Z,1.30
2019-03-16T11:35:38.738Z,1.27
2019-03-16T11:38:09.548Z,1.20
2019-03-16T11:40:40.525Z,1.20
2019-03-16T11:43:11.547Z,1.30
2019-03-16T11:45:42.596Z,1.50
2019-03-16T11:48:13.668Z,1.47
2019-03-16T11:50:44.468Z,1.53
2019-03-16T11:53:15.247Z,1.67
2019-03-16T11:55:46.079Z,1.70
2019-03-16T11:58:17.197Z,1.73
2019-03-16T12:00:48.461Z,1.60
2019-03-16T12:03:19.486Z,1.27
2019-03-16T12:05:50.551Z,1.40
2019-03-16T12:08:22.625Z,1.13
2019-03-16T12:10:53.410Z,1.20
2019-03-16T12:13:24.468Z,1.20
2019-03-16T12:15:55.455Z,1.10
2019-03-16T12:18:26.463Z,1.20
2019-03-16T12:20:57.422Z,1.40
2019-03-16T12:23:28.470Z,1.10
2019-03-16T12:25:59.498Z,1.30
2019-03-16T12:28:30.271Z,1.30
2019-03-16T12:31:01.302Z,1.30
2019-03-16T12:33:32.558Z,1.40
2019-03-16T12:36:03.652Z,1.23
2019-03-16T12:38:34.663Z,1.40
2019-03-16T12:41:05.743Z,1.40
2019-03-16T12:43:38.141Z,1.20
2019-03-16T12:46:09.225Z,2.07
2019-03-16T12:48:41.440Z,2.63
2019-03-16T12:51:12.429Z,1.73
2019-03-16T12:53:43.436Z,1.70
2019-03-16T12:56:14.424Z,1.40
2019-03-16T12:58:45.204Z,1.40
2019-03-16T13:01:16.506Z,1.40
2019-03-16T13:03:50.138Z,1.37
2019-03-16T13:06:19.986Z,1.47
2019-03-16T13:08:51.009Z,1.10
2019-03-16T13:11:21.991Z,1.10
2019-03-16T13:13:53.118Z,1.30
2019-03-16T13:16:24.194Z,1.20
2019-03-16T13:18:54.943Z,1.30
2019-03-16T13:21:26.199Z,1.27
2019-03-16T13:23:57.189Z,1.20
2019-03-16T13:26:28.165Z,1.20
2019-03-16T13:28:59.314Z,1.30
2019-03-16T13:31:30.393Z,1.30
2019-03-16T13:34:01.385Z,1.50
2019-03-16T13:36:32.154Z,1.40
2019-03-16T13:39:03.799Z,1.50
2019-03-16T13:41:34.635Z,1.40
2019-03-16T13:44:05.478Z,1.47
2019-03-16T13:46:36.489Z,1.40
2019-03-16T13:49:07.482Z,1.50
2019-03-16T13:51:38.831Z,1.50
2019-03-16T13:54:09.890Z,1.30
2019-03-16T13:56:40.881Z,1.73
2019-03-16T13:59:11.712Z,1.30
2019-03-16T14:01:43.269Z,1.30
2019-03-16T14:04:14.300Z,1.40
2019-03-16T14:06:45.127Z,1.30
2019-03-16T14:09:16.196Z,1.40
2019-03-16T14:11:46.989Z,1.60
2019-03-16T14:14:18.105Z,1.40
2019-03-16T14:16:49.207Z,1.40
2019-03-16T14:19:20.201Z,1.27
2019-03-16T14:21:51.177Z,1.43
2019-03-16T14:24:22.127Z,1.20
2019-03-16T14:26:52.887Z,1.17
2019-03-16T14:29:23.982Z,1.20
2019-03-16T14:31:55.211Z,1.47
2019-03-16T14:34:26.212Z,1.30
2019-03-16T14:36:57.526Z,1.43
2019-03-16T14:39:28.470Z,1.63
2019-03-16T14:41:59.231Z,1.50
2019-03-16T14:44:30.490Z,1.40
2019-03-16T14:47:01.268Z,1.30
2019-03-16T14:49:32.010Z,1.53
2019-03-16T14:52:03.738Z,1.70
2019-03-16T14:54:34.568Z,1.83
2019-03-16T14:57:05.632Z,1.80
2019-03-16T14:59:36.643Z,1.40
2019-03-16T15:02:07.875Z,1.70
2019-03-16T15:04:38.870Z,1.53
2019-03-16T15:07:10.000Z,1.53
2019-03-16T15:09:41.730Z,1.70
2019-03-16T15:12:15.854Z,1.40
2019-03-16T15:14:45.311Z,1.40
2019-03-16T15:17:16.548Z,1.37
2019-03-16T15:19:47.588Z,1.43
2019-03-16T15:22:18.359Z,1.40
2019-03-16T15:24:49.374Z,1.47
2019-03-16T15:27:20.345Z,1.70
2019-03-16T15:29:51.198Z,1.67
2019-03-16T15:32:22.139Z,1.60
2019-03-16T15:34:52.951Z,1.60
2019-03-16T15:37:24.015Z,1.43
2019-03-16T15:39:55.496Z,1.57
2019-03-16T15:42:26.724Z,1.70
2019-03-16T15:44:57.870Z,1.70
2019-03-16T15:47:30.056Z,2.07
2019-03-16T15:50:01.195Z,1.87
2019-03-16T15:52:32.041Z,2.00
2019-03-16T15:55:03.039Z,1.90
2019-03-16T15:57:34.418Z,1.90
2019-03-16T16:00:06.706Z,1.80
2019-03-16T16:02:38.615Z,1.40
2019-03-16T16:05:09.564Z,1.30
2019-03-16T16:07:40.458Z,1.63
2019-03-16T16:10:12.014Z,1.40
2019-03-16T16:12:43.102Z,1.57
2019-03-16T16:15:14.126Z,1.70
2019-03-16T16:17:45.272Z,1.67
2019-03-16T16:20:16.358Z,2.00
2019-03-16T16:22:47.442Z,1.60
2019-03-16T16:25:19.418Z,1.50
2019-03-16T16:27:50.188Z,1.40
2019-03-16T16:30:20.961Z,1.40
2019-03-16T16:32:51.731Z,1.50
2019-03-16T16:35:22.833Z,1.37
2019-03-16T16:37:54.130Z,1.37
2019-03-16T16:40:24.966Z,1.70
2019-03-16T16:42:55.726Z,1.53
2019-03-16T16:45:26.502Z,1.80
2019-03-16T16:47:57.264Z,1.70
2019-03-16T16:50:28.030Z,2.33
2019-03-16T16:52:58.854Z,2.03
2019-03-16T16:55:29.638Z,1.73
2019-03-16T16:58:00.388Z,1.70
2019-03-16T17:00:31.455Z,1.90
2019-03-16T17:03:02.328Z,1.50
2019-03-16T17:05:33.154Z,1.70
2019-03-16T17:08:03.973Z,1.60
2019-03-16T17:10:34.969Z,1.53
2019-03-16T17:13:05.803Z,1.70
2019-03-16T17:15:36.573Z,1.80
2019-03-16T17:18:07.733Z,1.80
2019-03-16T17:20:38.818Z,2.00
2019-03-16T17:23:09.581Z,2.23
2019-03-16T17:25:40.601Z,2.20
2019-03-16T17:28:11.374Z,2.20
2019-03-16T17:30:42.390Z,2.10
2019-03-16T17:33:13.631Z,1.77
2019-03-16T17:35:44.694Z,1.87
2019-03-16T17:38:16.006Z,1.80
2019-03-16T17:40:47.277Z,2.23
2019-03-16T17:43:18.610Z,1.97
2019-03-16T17:45:49.382Z,1.90
2019-03-16T17:48:20.449Z,2.03
2019-03-16T17:50:51.231Z,1.70
2019-03-16T17:53:23.485Z,1.90
2019-03-16T17:55:54.506Z,1.80
2019-03-16T17:58:26.301Z,1.80
2019-03-16T18:00:57.310Z,1.97
2019-03-16T18:03:28.313Z,1.70
2019-03-16T18:05:59.319Z,2.80
2019-03-16T18:08:31.305Z,2.93
2019-03-16T18:11:02.348Z,2.20
2019-03-16T18:13:33.218Z,1.70
2019-03-16T18:16:04.333Z,2.00
2019-03-16T18:18:35.324Z,1.80
2019-03-16T18:21:06.355Z,1.80
2019-03-16T18:23:37.350Z,2.10
2019-03-16T18:26:08.366Z,2.80
2019-03-16T18:28:39.560Z,3.00
2019-03-16T18:31:10.324Z,2.47
2019-03-16T18:33:41.330Z,2.80
2019-03-16T18:36:12.568Z,2.40
2019-03-16T18:39:02.223Z,2.67
2019-03-16T18:41:32.652Z,2.57
2019-03-16T18:44:21.535Z,2.10
2019-03-16T18:47:11.544Z,2.50
2019-03-16T18:50:00.892Z,2.40
2019-03-16T18:52:49.849Z,2.30
2019-03-16T18:55:38.702Z,2.40
2019-03-16T18:58:37.253Z,2.90
2019-03-16T19:01:19.497Z,2.80
2019-03-16T19:04:08.665Z,2.30
2019-03-16T19:06:58.086Z,2.10
2019-03-16T19:09:47.559Z,2.40
2019-03-16T19:12:35.982Z,2.17
2019-03-16T19:15:24.643Z,2.23
2019-03-16T19:18:13.902Z,1.97
2019-03-16T19:21:03.020Z,1.90
2019-03-16T19:23:52.123Z,1.80
2019-03-16T19:26:41.699Z,2.00
2019-03-16T19:29:31.101Z,2.60
2019-03-16T19:32:32.818Z,1.80
2019-03-16T19:35:11.652Z,2.30
2019-03-16T19:38:01.735Z,1.90
2019-03-16T19:40:51.221Z,1.70
2019-03-16T19:43:42.148Z,1.80
2019-03-16T19:46:31.910Z,1.80
2019-03-16T19:49:21.938Z,1.57
2019-03-16T19:52:11.057Z,1.63
2019-03-16T19:55:00.368Z,1.50
2019-03-16T19:57:48.927Z,1.70
2019-03-16T20:00:38.489Z,1.90
2019-03-16T20:03:27.848Z,1.90
2019-03-16T20:06:25.607Z,1.67
2019-03-16T20:09:08.566Z,1.60
2019-03-16T20:11:58.241Z,1.67
2019-03-16T20:14:47.898Z,1.40
2019-03-16T20:17:37.270Z,1.70
2019-03-16T20:20:26.623Z,1.40
2019-03-16T20:23:16.058Z,1.70
2019-03-16T20:26:05.655Z,1.60
2019-03-16T20:28:55.434Z,1.60
2019-03-16T20:31:47.168Z,1.77
2019-03-16T20:34:34.098Z,1.60
2019-03-16T20:37:23.439Z,1.60
2019-03-16T20:40:13.269Z,1.40
2019-03-16T20:43:02.535Z,1.40
2019-03-16T20:45:51.066Z,1.70
2019-03-16T20:48:40.614Z,1.70
2019-03-16T20:51:30.272Z,1.63
2019-03-16T20:54:18.857Z,1.30
2019-03-16T20:57:08.371Z,1.57
2019-03-16T20:59:58.017Z,1.40
2019-03-16T21:02:47.257Z,1.40
2019-03-16T21:05:36.911Z,1.47
2019-03-16T21:08:26.801Z,1.80
2019-03-16T21:11:15.760Z,1.50
2019-03-16T21:14:04.568Z,6.20
2019-03-16T21:16:54.230Z,2.30
2019-03-16T21:19:43.877Z,1.73
2019-03-16T21:22:36.344Z,1.73
2019-03-16T21:25:23.412Z,1.40
2019-03-16T21:28:12.478Z,1.80
2019-03-16T21:31:02.550Z,1.70
2019-03-16T21:33:51.257Z,1.60
2019-03-16T21:36:41.915Z,1.63
2019-03-16T21:39:31.456Z,2.60
2019-03-16T21:42:20.438Z,1.57
2019-03-16T21:45:10.607Z,1.70
2019-03-16T21:48:00.451Z,1.70
2019-03-16T21:50:50.183Z,1.40
2019-03-16T21:53:39.602Z,1.90
2019-03-16T21:56:28.233Z,1.60
2019-03-16T21:59:17.683Z,1.80
2019-03-16T22:02:07.323Z,1.80
2019-03-16T22:04:56.170Z,1.67
2019-03-16T22:07:45.277Z,2.00
2019-03-16T22:10:33.805Z,1.90
2019-03-16T22:13:23.307Z,2.00
2019-03-16T22:16:12.505Z,1.90
2019-03-16T22:19:00.890Z,2.00
2019-03-16T22:21:50.329Z,1.93
2019-03-16T22:24:40.007Z,2.03
2019-03-16T22:27:28.408Z,2.67
2019-03-16T22:30:17.363Z,2.00
2019-03-16T22:33:07.109Z,2.17
2019-03-16T22:35:56.255Z,1.83
2019-03-16T22:38:44.938Z,1.80
2019-03-16T22:41:34.417Z,1.80
2019-03-16T22:44:24.039Z,1.80
2019-03-16T22:47:12.679Z,1.80
2019-03-16T22:50:01.349Z,1.80
2019-03-16T22:52:50.725Z,1.53
2019-03-16T22:55:39.611Z,1.83
2019-03-16T22:58:29.271Z,1.60
2019-03-16T23:01:19.261Z,1.63
2019-03-16T23:04:09.002Z,1.90
2019-03-16T23:06:58.501Z,2.00
2019-03-16T23:09:47.927Z,2.00
2019-03-16T23:12:36.610Z,1.70
2019-03-16T23:15:26.005Z,2.00
2019-03-16T23:18:15.403Z,2.00
2019-03-16T23:21:05.039Z,1.70
2019-03-16T23:23:54.336Z,1.90
2019-03-16T23:26:44.249Z,2.07
2019-03-16T23:29:33.685Z,1.80
2019-03-16T23:32:22.241Z,1.97
2019-03-16T23:35:11.964Z,2.00
2019-03-16T23:38:01.529Z,2.10
2019-03-16T23:40:50.904Z,2.10
2019-03-16T23:43:40.346Z,2.13
2019-03-16T23:46:29.698Z,2.30
2019-03-16T23:49:19.693Z,2.20
2019-03-16T23:52:08.325Z,2.30
2019-03-16T23:54:58.915Z,2.17
2019-03-16T23:57:48.107Z,2.03
